Terminal Aerodrome Forecast (TAF)

TAF


TAF for:NVSC (Vanua Lava/Sola Airport) issued at 2220 UTC 21 Oct 2017
Text:TAF NVSC 212220Z 2200/2224 10010KT 9999 SCT022
Forecast period:0000 UTC 22 October 2017 to 0000 UTC 23 October 2017
Forecast type:FROM: standard forecast or significant change
Winds:from the E (100 degrees) at 12 MPH (10 knots; 5.1 m/s)
Visibility:6 or more sm (10+ km)
Ceiling:at least 12,000 feet AGL
Clouds: scattered clouds at 2200 feet AGL

TAF


TAF for:NVSG (Ambae/Longana Airport) issued at 2220 UTC 21 Oct 2017
Text:TAF NVSG 212220Z 2200/2224 11010KT 9999 SCT022
Forecast period:0000 UTC 22 October 2017 to 0000 UTC 23 October 2017
Forecast type:FROM: standard forecast or significant change
Winds:from the ESE (110 degrees) at 12 MPH (10 knots; 5.1 m/s)
Visibility:6 or more sm (10+ km)
Ceiling:at least 12,000 feet AGL
Clouds: scattered clouds at 2200 feet AGL

TAF


TAF for:NVSS (Santo/Pekoa International Airport) issued at 2220 UTC 21 Oct 2017
Text:TAF NVSS 212220Z 2200/2224 08008KT 9999 SCT022
Forecast period:0000 UTC 22 October 2017 to 0000 UTC 23 October 2017
Forecast type:FROM: standard forecast or significant change
Winds:from the E (80 degrees) at 9 MPH (8 knots; 4.1 m/s)
Visibility:6 or more sm (10+ km)
Ceiling:at least 12,000 feet AGL
Clouds: scattered clouds at 2200 feet AGL

TAF


TAF for:NVSL (Malekula/Lamap Airport) issued at 2220 UTC 21 Oct 2017
Text:TAF NVSL 212220Z 2200/2224 07010KT 9999 SCT025
Forecast period:0000 UTC 22 October 2017 to 0000 UTC 23 October 2017
Forecast type:FROM: standard forecast or significant change
Winds:from the ENE (70 degrees) at 12 MPH (10 knots; 5.1 m/s)
Visibility:6 or more sm (10+ km)
Ceiling:at least 12,000 feet AGL
Clouds: scattered clouds at 2500 feet AGL

TAF


TAF for:NVSP (Malekula/Norsup Airport) (Norsup Arpt, --, NV) issued at 2220 UTC 21 Oct 2017
Text:TAF NVSP (Malekula/Norsup Airport) 212220Z 2200/2224 06008KT 9999 FEW025
Forecast period:0000 UTC 22 October 2017 to 0000 UTC 23 October 2017
Forecast type:FROM: standard forecast or significant change
Winds:from the ENE (60 degrees) at 9 MPH (8 knots; 4.1 m/s)
Visibility:6 or more sm (10+ km)
Ceiling:at least 12,000 feet AGL
Clouds: few clouds at 2500 feet AGL

TAF


TAF for:NVVV (Efate/Bauerfield International Airport) issued at 2220 UTC 21 Oct 2017
Text:TAF NVVV 212220Z 2200/2224 07010KT 9999 SCT025
Forecast period:0000 UTC 22 October 2017 to 0000 UTC 23 October 2017
Forecast type:FROM: standard forecast or significant change
Winds:from the ENE (70 degrees) at 12 MPH (10 knots; 5.1 m/s)
Visibility:6 or more sm (10+ km)
Ceiling:at least 12,000 feet AGL
Clouds: scattered clouds at 2500 feet AGL

TAF


TAF for:NVVW (Tanna/WhiteGrass International Airport) issued at 1600 UTC 21 Oct 2017
Text:TAF NVVW 211600Z 2118/2218 13010KT 9999 SCT025
Forecast period:1800 UTC 21 October 2017 to 1800 UTC 22 October 2017
Forecast type:FROM: standard forecast or significant change
Winds:from the SE (130 degrees) at 12 MPH (10 knots; 5.1 m/s)
Visibility:6 or more sm (10+ km)
Ceiling:at least 12,000 feet AGL
Clouds: scattered clouds at 2500 feet AGL

TAF


TAF for:NVVA (Aneityum/Anelcahuat Airport) issued at 2220 UTC 21 Oct 2017
Text:TAF NVVA 212220Z 2200/2224 07010KT 9999 SCT025
Forecast period:0000 UTC 22 October 2017 to 0000 UTC 23 October 2017
Forecast type:FROM: standard forecast or significant change
Winds:from the ENE (70 degrees) at 12 MPH (10 knots; 5.1 m/s)
Visibility:6 or more sm (10+ km)
Ceiling:at least 12,000 feet AGL
Clouds: scattered clouds at 2500 feet AGL

TAF

ADDS TAF Data INFO
IDs: Format: Raw Decoded Include METARs

Data at: 0100 UTC 22 Oct 2017

TAF NVSC 212220Z 2200/2224 10010KT 9999 SCT022
 TAF NVSG 212220Z 2200/2224 11010KT 9999 SCT022
 TAF NVSS 212220Z 2200/2224 08008KT 9999 SCT022
 TAF NVSL 212220Z 2200/2224 07010KT 9999 SCT025
 TAF NVSP 212220Z 2200/2224 06008KT 9999 FEW025
 TAF NVVV 212220Z 2200/2224 07010KT 9999 SCT025
 TAF NVVW 211600Z 2118/2218 13010KT 9999 SCT025
 TAF NVVA 212220Z 2200/2224 07010KT 9999 SCT025